Portada
METAR-TAF:

METAR-TAF

Aeropuertos :

El Cairo, Egipto

Aeropuerto Internacional de El Cairo

latitud: 30-08N, longitud: 031-24E, altitud: 64 m

Observación

El informe se hizo hace 23 minutos, a las 00:00 UTC
Viento calma
Temperatura 18°C
Humedad 68%
Presión 1016 hPa
Visibilidad 10 km o más
sin nubes por debajo de 1500 m y sin presencia de cumulonimbus.

METAR: HECA 200000Z 00000KT CAVOK 18/12 Q1016 NOSIG

Hora: 02:23 (00:23 UTC)

Pronóstico

El informe se hizo hace 1 hora y 23 minutos, a las 23:00 UTC
Pronóstico válido del 20 a las 00 UTC al 21 a las 06 UTC
Viento 3 kt con dirección variable
Visibilidad: 6000 m
Temporalmente
del 20 a las 00 UTC al 20 a las 06 UTC
Visibilidad: 4000 m
calima
Evolucionando progresivamente
del 20 a las 06 UTC al 20 a las 08 UTC
Viento 7 kt del oeste-noroeste
Visibilidad 10 km o más
Escasas nubes a una altura de 2500 ft

TAF: HECA 192300Z 2000/2106 VRB03KT 6000 NSC TEMPO 2000/2006 4000 HZ BECMG 2006/2008 30007KT 9999 FEW025

Observaciones y pronósticos meteorológicos de más de 4000 aeropuertos (mensajes METAR y TAF).

Los puntos amarillos y rojos representan las estaciones disponibles.

Ponga el ratón en el punto deseado para ver el nombre de la estación.

Haga clic para ver las observaciones y los pronósticos meteorológicos.

Para cambiar el mapa : haga clic en los botones verdes con una cruz de color negro para hacer un zoom, en el botón verde con un guión para alejar o en las flechas verdes para mapas adyacentes.


METAR-TAF: